Castleton, Virginia
Current Conditions -  °F | °C
As of 3:35 AM on Saturday 20 Dec 2014 (Local Time) from KCJR Reporting Station
Clear Clear  
Wind Chill: 21°   Ceiling: Unl
Heat Index: 21°   Visibility: 10mi
Dew Point: 19°   Wind: 0mph
Humidity: 93%   Direction: NA
Pressure: 30.27"   Gusts: NA
Location:  38.61°N, 78.11°W
Report Text: KCJR 200835Z AUTO 00000KT 10SM CLR M06/M07 A3027 RMK AO2
Loading
Personal Weather Stations






























Interactive Weather Map New forecast layout! Learn more

10-Day Weather Forecast

Advertisements
Track Severe Weather on mobile